createdAt,value
2019-03-21T17:57:52.032Z,15.50
2019-03-21T18:00:31.664Z,15.30
2019-03-21T18:03:10.693Z,15.20
2019-03-21T18:05:46.350Z,15.20
2019-03-21T18:08:22.785Z,15.10
2019-03-21T18:10:58.304Z,15.00
2019-03-21T18:13:33.931Z,14.90
2019-03-21T18:16:19.497Z,14.90
2019-03-21T18:18:56.821Z,14.80
2019-03-21T18:21:33.473Z,14.60
2019-03-21T18:24:09.435Z,14.60
2019-03-21T18:26:45.529Z,14.40
2019-03-21T18:29:22.357Z,14.30
2019-03-21T18:31:58.166Z,14.20
2019-03-21T18:34:36.763Z,14.10
2019-03-21T18:37:12.388Z,13.90
2019-03-21T18:39:47.860Z,13.80
2019-03-21T18:42:23.415Z,13.70
2019-03-21T18:44:59.486Z,13.70
2019-03-21T18:47:36.420Z,13.50
2019-03-21T18:50:16.364Z,13.50
2019-03-21T18:52:50.856Z,13.40
2019-03-21T18:55:26.479Z,13.30
2019-03-21T18:58:01.960Z,13.20
2019-03-21T19:00:37.724Z,13.00
2019-03-21T19:03:13.129Z,12.90
2019-03-21T19:05:50.287Z,12.80
2019-03-21T19:08:25.904Z,12.80
2019-03-21T19:11:06.475Z,12.70
2019-03-21T19:13:41.882Z,12.60
2019-03-21T19:16:17.420Z,12.60
2019-03-21T19:18:53.106Z,12.60
2019-03-21T19:21:28.969Z,12.50
2019-03-21T19:24:04.451Z,12.50
2019-03-21T19:26:40.321Z,12.40
2019-03-21T19:29:15.729Z,12.30
2019-03-21T19:31:51.380Z,12.30
2019-03-21T19:34:26.939Z,12.20
2019-03-21T19:37:02.694Z,12.20
2019-03-21T19:39:38.468Z,12.10
2019-03-21T19:42:14.061Z,12.10
2019-03-21T19:44:57.571Z,12.00
2019-03-21T19:47:33.215Z,12.00
2019-03-21T19:50:09.754Z,11.90
2019-03-21T19:52:45.434Z,11.80
2019-03-21T19:55:30.194Z,11.70
2019-03-21T19:57:58.136Z,11.60
2019-03-21T20:00:33.736Z,11.50
2019-03-21T20:03:09.660Z,11.40
2019-03-21T20:05:45.051Z,11.30
2019-03-21T20:08:20.812Z,11.30
2019-03-21T20:10:56.275Z,11.20
2019-03-21T20:13:31.733Z,11.10
2019-03-21T20:16:07.302Z,11.10
2019-03-21T20:18:43.235Z,11.00
2019-03-21T20:21:18.626Z,11.00
2019-03-21T20:23:54.133Z,10.90
2019-03-21T20:26:29.806Z,10.80
2019-03-21T20:29:05.390Z,10.80
2019-03-21T20:31:41.015Z,10.70
2019-03-21T20:34:31.418Z,10.60
2019-03-21T20:37:18.967Z,10.60
2019-03-21T20:39:53.269Z,10.60
2019-03-21T20:42:30.293Z,10.50
2019-03-21T20:45:07.285Z,10.40
2019-03-21T20:47:42.649Z,10.40
2019-03-21T20:50:18.220Z,10.40
2019-03-21T20:52:53.735Z,10.30
2019-03-21T20:55:29.393Z,10.30
2019-03-21T20:58:04.971Z,10.30
2019-03-21T21:00:45.807Z,10.20
2019-03-21T21:03:21.396Z,10.20
2019-03-21T21:05:56.940Z,10.20
2019-03-21T21:08:32.663Z,10.10
2019-03-21T21:11:17.501Z,10.10
2019-03-21T21:13:53.156Z,10.10
2019-03-21T21:16:28.748Z,10.00
2019-03-21T21:19:04.296Z,10.00
2019-03-21T21:21:39.898Z,10.00
2019-03-21T21:24:15.498Z,9.90
2019-03-21T21:26:52.647Z,9.90
2019-03-21T21:29:35.630Z,9.80
2019-03-21T21:32:11.458Z,9.80
2019-03-21T21:34:47.059Z,9.70
2019-03-21T21:37:22.745Z,9.70
2019-03-21T21:39:58.336Z,9.60
2019-03-21T21:42:33.920Z,9.60
2019-03-21T21:45:10.226Z,9.60
2019-03-21T21:47:46.339Z,9.60
2019-03-21T21:50:24.631Z,9.60
2019-03-21T21:53:01.779Z,9.60
2019-03-21T21:55:37.709Z,9.50
2019-03-21T21:58:13.365Z,9.40
2019-03-21T22:00:48.918Z,9.40
2019-03-21T22:03:32.883Z,9.40
2019-03-21T22:06:08.959Z,9.40
2019-03-21T22:08:44.709Z,9.40
2019-03-21T22:11:20.403Z,9.40
2019-03-21T22:13:55.878Z,9.40
2019-03-21T22:16:31.535Z,9.30
2019-03-21T22:19:07.259Z,9.20
2019-03-21T22:21:42.954Z,9.20
2019-03-21T22:24:18.549Z,9.20
2019-03-21T22:26:54.239Z,9.10
2019-03-21T22:29:29.935Z,9.10
2019-03-21T22:32:05.476Z,9.10
2019-03-21T22:34:41.105Z,9.00
2019-03-21T22:37:16.875Z,9.00
2019-03-21T22:39:52.618Z,9.00
2019-03-21T22:42:28.169Z,9.00
2019-03-21T22:45:04.170Z,8.90
2019-03-21T22:47:39.729Z,8.90
2019-03-21T22:50:15.323Z,8.80
2019-03-21T22:52:52.026Z,8.70
2019-03-21T22:55:30.338Z,8.70
2019-03-21T22:58:05.998Z,8.70
2019-03-21T23:00:43.420Z,8.70
2019-03-21T23:03:19.098Z,8.70
2019-03-21T23:05:54.676Z,8.60
2019-03-21T23:08:30.395Z,8.60
2019-03-21T23:11:06.341Z,8.60
2019-03-21T23:13:41.917Z,8.50
2019-03-21T23:16:17.521Z,8.50
2019-03-21T23:18:53.314Z,8.50
2019-03-21T23:21:29.178Z,8.40
2019-03-21T23:24:15.611Z,8.50
2019-03-21T23:27:03.147Z,8.50
2019-03-21T23:29:37.271Z,8.50
2019-03-21T23:32:15.145Z,8.40
2019-03-21T23:34:50.689Z,8.40
2019-03-21T23:37:32.189Z,8.40
2019-03-21T23:40:11.092Z,8.40
2019-03-21T23:42:55.316Z,8.40
2019-03-21T23:45:30.844Z,8.30
2019-03-21T23:48:06.265Z,8.20
2019-03-21T23:50:41.808Z,8.20
2019-03-21T23:53:17.329Z,8.20
2019-03-21T23:55:52.643Z,8.10
2019-03-21T23:58:28.443Z,8.10
